sensor_id;sensor_type;location;lat;lon;timestamp;temperature;humidity
9975;DHT22;5028;50.974;4.968;2024-02-16T00:00:13;12.80;99.90
9975;DHT22;5028;50.974;4.968;2024-02-16T00:02:43;12.80;99.90
9975;DHT22;5028;50.974;4.968;2024-02-16T00:05:13;12.80;99.90
9975;DHT22;5028;50.974;4.968;2024-02-16T00:07:41;12.80;99.90
9975;DHT22;5028;50.974;4.968;2024-02-16T00:10:11;12.90;99.90
9975;DHT22;5028;50.974;4.968;2024-02-16T00:12:40;12.90;99.90
9975;DHT22;5028;50.974;4.968;2024-02-16T00:15:09;12.80;99.90
9975;DHT22;5028;50.974;4.968;2024-02-16T00:17:38;12.80;99.90
9975;DHT22;5028;50.974;4.968;2024-02-16T00:20:07;12.80;99.90
9975;DHT22;5028;50.974;4.968;2024-02-16T00:22:37;12.80;99.90
9975;DHT22;5028;50.974;4.968;2024-02-16T00:25:06;12.80;99.90
9975;DHT22;5028;50.974;4.968;2024-02-16T00:27:35;12.80;99.90
9975;DHT22;5028;50.974;4.968;2024-02-16T00:30:07;12.70;99.90
9975;DHT22;5028;50.974;4.968;2024-02-16T00:32:37;12.70;99.90
9975;DHT22;5028;50.974;4.968;2024-02-16T00:35:06;12.70;99.90
9975;DHT22;5028;50.974;4.968;2024-02-16T00:37:34;12.70;99.90
9975;DHT22;5028;50.974;4.968;2024-02-16T00:40:03;12.70;99.90
9975;DHT22;5028;50.974;4.968;2024-02-16T00:42:34;12.70;99.90
9975;DHT22;5028;50.974;4.968;2024-02-16T00:45:03;12.60;99.90
9975;DHT22;5028;50.974;4.968;2024-02-16T00:47:32;12.70;99.90
9975;DHT22;5028;50.974;4.968;2024-02-16T00:50:00;12.60;99.90
9975;DHT22;5028;50.974;4.968;2024-02-16T00:52:28;12.60;99.90
9975;DHT22;5028;50.974;4.968;2024-02-16T00:54:57;12.60;99.90
9975;DHT22;5028;50.974;4.968;2024-02-16T00:57:25;12.60;99.90
9975;DHT22;5028;50.974;4.968;2024-02-16T00:59:55;12.60;99.90
9975;DHT22;5028;50.974;4.968;2024-02-16T01:02:23;12.60;99.90
9975;DHT22;5028;50.974;4.968;2024-02-16T01:04:56;12.60;99.90
9975;DHT22;5028;50.974;4.968;2024-02-16T01:07:29;12.60;99.90
9975;DHT22;5028;50.974;4.968;2024-02-16T01:09:58;12.60;99.90
9975;DHT22;5028;50.974;4.968;2024-02-16T01:12:30;12.60;99.90
9975;DHT22;5028;50.974;4.968;2024-02-16T01:15:00;12.60;99.90
9975;DHT22;5028;50.974;4.968;2024-02-16T01:17:28;12.50;99.90
9975;DHT22;5028;50.974;4.968;2024-02-16T01:19:59;12.60;99.90
9975;DHT22;5028;50.974;4.968;2024-02-16T01:22:28;12.50;99.90
9975;DHT22;5028;50.974;4.968;2024-02-16T01:24:57;12.60;99.90
9975;DHT22;5028;50.974;4.968;2024-02-16T01:27:25;12.50;99.90
9975;DHT22;5028;50.974;4.968;2024-02-16T01:29:55;12.50;99.90
9975;DHT22;5028;50.974;4.968;2024-02-16T01:32:24;12.50;99.90
9975;DHT22;5028;50.974;4.968;2024-02-16T01:34:53;12.50;99.90
9975;DHT22;5028;50.974;4.968;2024-02-16T01:37:21;12.50;99.90
9975;DHT22;5028;50.974;4.968;2024-02-16T01:39:49;12.50;99.90
9975;DHT22;5028;50.974;4.968;2024-02-16T01:42:17;12.50;99.90
9975;DHT22;5028;50.974;4.968;2024-02-16T01:44:46;12.50;99.90
9975;DHT22;5028;50.974;4.968;2024-02-16T01:47:14;12.60;99.90
9975;DHT22;5028;50.974;4.968;2024-02-16T01:49:45;12.60;99.90
9975;DHT22;5028;50.974;4.968;2024-02-16T01:52:13;12.50;99.90
9975;DHT22;5028;50.974;4.968;2024-02-16T01:54:41;12.60;99.90
9975;DHT22;5028;50.974;4.968;2024-02-16T01:57:10;12.60;99.90
9975;DHT22;5028;50.974;4.968;2024-02-16T01:59:40;12.60;99.90
9975;DHT22;5028;50.974;4.968;2024-02-16T02:02:09;12.60;99.90
9975;DHT22;5028;50.974;4.968;2024-02-16T02:04:37;12.50;99.90
9975;DHT22;5028;50.974;4.968;2024-02-16T02:07:12;12.50;99.90
9975;DHT22;5028;50.974;4.968;2024-02-16T02:09:41;12.50;99.90
9975;DHT22;5028;50.974;4.968;2024-02-16T02:12:10;12.60;99.90
9975;DHT22;5028;50.974;4.968;2024-02-16T02:14:38;12.50;99.90
9975;DHT22;5028;50.974;4.968;2024-02-16T02:17:06;12.60;99.90
9975;DHT22;5028;50.974;4.968;2024-02-16T02:19:35;12.60;99.90
9975;DHT22;5028;50.974;4.968;2024-02-16T02:22:04;12.50;99.90
9975;DHT22;5028;50.974;4.968;2024-02-16T02:24:34;12.60;99.90
9975;DHT22;5028;50.974;4.968;2024-02-16T02:27:02;12.50;99.90
9975;DHT22;5028;50.974;4.968;2024-02-16T02:29:30;12.60;99.90
9975;DHT22;5028;50.974;4.968;2024-02-16T02:31:59;12.60;99.90
9975;DHT22;5028;50.974;4.968;2024-02-16T02:34:28;12.50;99.90
9975;DHT22;5028;50.974;4.968;2024-02-16T02:36:56;12.50;99.90
9975;DHT22;5028;50.974;4.968;2024-02-16T02:39:24;12.50;99.90
9975;DHT22;5028;50.974;4.968;2024-02-16T02:41:54;12.50;99.90
9975;DHT22;5028;50.974;4.968;2024-02-16T02:44:22;12.50;99.90
9975;DHT22;5028;50.974;4.968;2024-02-16T02:46:50;12.50;99.90
9975;DHT22;5028;50.974;4.968;2024-02-16T02:49:19;12.50;99.90
9975;DHT22;5028;50.974;4.968;2024-02-16T02:51:47;12.50;99.90
9975;DHT22;5028;50.974;4.968;2024-02-16T02:54:15;12.50;99.90
9975;DHT22;5028;50.974;4.968;2024-02-16T02:56:44;12.50;99.90
9975;DHT22;5028;50.974;4.968;2024-02-16T02:59:13;12.50;99.90
9975;DHT22;5028;50.974;4.968;2024-02-16T03:01:41;12.50;99.90
9975;DHT22;5028;50.974;4.968;2024-02-16T03:04:10;12.50;99.90
9975;DHT22;5028;50.974;4.968;2024-02-16T03:06:38;12.60;99.90
9975;DHT22;5028;50.974;4.968;2024-02-16T03:09:06;12.50;99.90
9975;DHT22;5028;50.974;4.968;2024-02-16T03:11:35;12.60;99.90
9975;DHT22;5028;50.974;4.968;2024-02-16T03:14:04;12.60;99.90
9975;DHT22;5028;50.974;4.968;2024-02-16T03:16:34;12.60;99.90
9975;DHT22;5028;50.974;4.968;2024-02-16T03:19:05;12.60;99.90
9975;DHT22;5028;50.974;4.968;2024-02-16T03:21:36;12.60;99.90
9975;DHT22;5028;50.974;4.968;2024-02-16T03:24:04;12.60;99.90
9975;DHT22;5028;50.974;4.968;2024-02-16T03:26:33;12.60;99.90
9975;DHT22;5028;50.974;4.968;2024-02-16T03:29:01;12.60;99.90
9975;DHT22;5028;50.974;4.968;2024-02-16T03:31:30;12.60;99.90
9975;DHT22;5028;50.974;4.968;2024-02-16T03:34:01;12.60;99.90
9975;DHT22;5028;50.974;4.968;2024-02-16T03:36:30;12.60;99.90
9975;DHT22;5028;50.974;4.968;2024-02-16T03:38:59;12.60;99.90
9975;DHT22;5028;50.974;4.968;2024-02-16T03:41:27;12.60;99.90
9975;DHT22;5028;50.974;4.968;2024-02-16T03:43:55;12.60;99.90
9975;DHT22;5028;50.974;4.968;2024-02-16T03:46:24;12.60;99.90
9975;DHT22;5028;50.974;4.968;2024-02-16T03:48:52;12.60;99.90
9975;DHT22;5028;50.974;4.968;2024-02-16T03:51:23;12.60;99.90
9975;DHT22;5028;50.974;4.968;2024-02-16T03:53:51;12.50;99.90
9975;DHT22;5028;50.974;4.968;2024-02-16T03:56:19;12.50;99.90
9975;DHT22;5028;50.974;4.968;2024-02-16T03:58:48;12.60;99.90
9975;DHT22;5028;50.974;4.968;2024-02-16T04:01:16;12.50;99.90
9975;DHT22;5028;50.974;4.968;2024-02-16T04:03:44;12.50;99.90
9975;DHT22;5028;50.974;4.968;2024-02-16T04:06:13;12.50;99.90
9975;DHT22;5028;50.974;4.968;2024-02-16T04:08:43;12.50;99.90
9975;DHT22;5028;50.974;4.968;2024-02-16T04:11:11;12.50;99.90
9975;DHT22;5028;50.974;4.968;2024-02-16T04:13:42;12.50;99.90
9975;DHT22;5028;50.974;4.968;2024-02-16T04:16:10;12.50;99.90
9975;DHT22;5028;50.974;4.968;2024-02-16T04:18:38;12.50;99.90
9975;DHT22;5028;50.974;4.968;2024-02-16T04:21:07;12.50;99.90
9975;DHT22;5028;50.974;4.968;2024-02-16T04:23:35;12.50;99.90
9975;DHT22;5028;50.974;4.968;2024-02-16T04:26:05;12.60;99.90
9975;DHT22;5028;50.974;4.968;2024-02-16T04:28:34;12.50;99.90
9975;DHT22;5028;50.974;4.968;2024-02-16T04:31:02;12.50;99.90
9975;DHT22;5028;50.974;4.968;2024-02-16T04:33:30;12.60;99.90
9975;DHT22;5028;50.974;4.968;2024-02-16T04:35:59;12.60;99.90
9975;DHT22;5028;50.974;4.968;2024-02-16T04:38:27;12.60;99.90
9975;DHT22;5028;50.974;4.968;2024-02-16T04:40:56;12.60;99.90
9975;DHT22;5028;50.974;4.968;2024-02-16T04:43:25;12.60;99.90
9975;DHT22;5028;50.974;4.968;2024-02-16T04:45:54;12.70;99.90
9975;DHT22;5028;50.974;4.968;2024-02-16T04:48:22;12.60;99.90
9975;DHT22;5028;50.974;4.968;2024-02-16T04:50:50;12.70;99.90
9975;DHT22;5028;50.974;4.968;2024-02-16T04:53:19;12.60;99.90
9975;DHT22;5028;50.974;4.968;2024-02-16T04:55:47;12.70;99.90
9975;DHT22;5028;50.974;4.968;2024-02-16T04:58:16;12.70;99.90
9975;DHT22;5028;50.974;4.968;2024-02-16T05:00:46;12.70;99.90
9975;DHT22;5028;50.974;4.968;2024-02-16T05:03:15;12.70;99.90
9975;DHT22;5028;50.974;4.968;2024-02-16T05:05:43;12.70;99.90
9975;DHT22;5028;50.974;4.968;2024-02-16T05:08:12;12.70;99.90
9975;DHT22;5028;50.974;4.968;2024-02-16T05:10:40;12.70;99.90
9975;DHT22;5028;50.974;4.968;2024-02-16T05:13:09;12.70;99.90
9975;DHT22;5028;50.974;4.968;2024-02-16T05:15:38;12.70;99.90
9975;DHT22;5028;50.974;4.968;2024-02-16T05:18:08;12.70;99.90
9975;DHT22;5028;50.974;4.968;2024-02-16T05:20:40;12.60;99.90
9975;DHT22;5028;50.974;4.968;2024-02-16T05:23:08;12.70;99.90
9975;DHT22;5028;50.974;4.968;2024-02-16T05:25:37;12.70;99.90
9975;DHT22;5028;50.974;4.968;2024-02-16T05:28:05;12.70;99.90
9975;DHT22;5028;50.974;4.968;2024-02-16T05:30:34;12.70;99.90
9975;DHT22;5028;50.974;4.968;2024-02-16T05:33:02;12.70;99.90
9975;DHT22;5028;50.974;4.968;2024-02-16T05:35:32;12.70;99.90
9975;DHT22;5028;50.974;4.968;2024-02-16T05:38:01;12.70;99.90
9975;DHT22;5028;50.974;4.968;2024-02-16T05:40:34;12.70;99.90
9975;DHT22;5028;50.974;4.968;2024-02-16T05:43:12;12.70;99.90
9975;DHT22;5028;50.974;4.968;2024-02-16T05:45:40;12.70;99.90
9975;DHT22;5028;50.974;4.968;2024-02-16T05:48:09;12.70;99.90
9975;DHT22;5028;50.974;4.968;2024-02-16T05:50:39;12.70;99.90
9975;DHT22;5028;50.974;4.968;2024-02-16T05:53:07;12.70;99.90
9975;DHT22;5028;50.974;4.968;2024-02-16T05:55:37;12.70;99.90
9975;DHT22;5028;50.974;4.968;2024-02-16T05:58:05;12.70;99.90
9975;DHT22;5028;50.974;4.968;2024-02-16T06:00:34;12.70;99.90
9975;DHT22;5028;50.974;4.968;2024-02-16T06:03:02;12.70;99.90
9975;DHT22;5028;50.974;4.968;2024-02-16T06:05:30;12.80;99.90
9975;DHT22;5028;50.974;4.968;2024-02-16T06:08:01;12.80;99.90
9975;DHT22;5028;50.974;4.968;2024-02-16T06:10:30;12.80;99.90
9975;DHT22;5028;50.974;4.968;2024-02-16T06:12:59;12.80;99.90
9975;DHT22;5028;50.974;4.968;2024-02-16T06:15:27;12.80;99.90
9975;DHT22;5028;50.974;4.968;2024-02-16T06:17:56;12.80;99.90
9975;DHT22;5028;50.974;4.968;2024-02-16T06:20:24;12.80;99.90
9975;DHT22;5028;50.974;4.968;2024-02-16T06:22:52;12.80;99.90
9975;DHT22;5028;50.974;4.968;2024-02-16T06:25:22;12.80;99.90
9975;DHT22;5028;50.974;4.968;2024-02-16T06:27:50;12.90;99.90
9975;DHT22;5028;50.974;4.968;2024-02-16T06:30:18;12.90;99.90
9975;DHT22;5028;50.974;4.968;2024-02-16T06:32:47;12.90;99.90
9975;DHT22;5028;50.974;4.968;2024-02-16T06:35:15;12.90;99.90
9975;DHT22;5028;50.974;4.968;2024-02-16T06:37:44;12.80;99.90
9975;DHT22;5028;50.974;4.968;2024-02-16T06:40:12;12.80;99.90
9975;DHT22;5028;50.974;4.968;2024-02-16T06:42:42;12.80;99.90
9975;DHT22;5028;50.974;4.968;2024-02-16T06:45:10;12.80;99.90
9975;DHT22;5028;50.974;4.968;2024-02-16T06:47:39;12.80;99.90
9975;DHT22;5028;50.974;4.968;2024-02-16T06:50:08;12.80;99.90
9975;DHT22;5028;50.974;4.968;2024-02-16T06:52:36;12.80;99.90
9975;DHT22;5028;50.974;4.968;2024-02-16T06:55:05;12.80;99.90
9975;DHT22;5028;50.974;4.968;2024-02-16T06:57:35;12.80;99.90
9975;DHT22;5028;50.974;4.968;2024-02-16T07:00:05;12.80;99.90
9975;DHT22;5028;50.974;4.968;2024-02-16T07:02:35;12.80;99.90
9975;DHT22;5028;50.974;4.968;2024-02-16T07:05:04;12.80;99.90
9975;DHT22;5028;50.974;4.968;2024-02-16T07:07:32;12.80;99.90
9975;DHT22;5028;50.974;4.968;2024-02-16T07:10:03;12.80;99.90
9975;DHT22;5028;50.974;4.968;2024-02-16T07:12:32;12.80;99.90
9975;DHT22;5028;50.974;4.968;2024-02-16T07:15:01;12.80;99.90
9975;DHT22;5028;50.974;4.968;2024-02-16T07:17:31;12.90;99.90
9975;DHT22;5028;50.974;4.968;2024-02-16T07:20:01;12.90;99.90
9975;DHT22;5028;50.974;4.968;2024-02-16T07:22:31;12.90;99.90
9975;DHT22;5028;50.974;4.968;2024-02-16T07:24:59;13.00;99.90
9975;DHT22;5028;50.974;4.968;2024-02-16T07:27:27;12.90;99.90
9975;DHT22;5028;50.974;4.968;2024-02-16T07:29:56;13.00;99.90
9975;DHT22;5028;50.974;4.968;2024-02-16T07:32:24;13.00;99.90
9975;DHT22;5028;50.974;4.968;2024-02-16T07:34:54;13.00;99.90
9975;DHT22;5028;50.974;4.968;2024-02-16T07:37:22;13.00;99.90
9975;DHT22;5028;50.974;4.968;2024-02-16T07:39:50;13.10;99.90
9975;DHT22;5028;50.974;4.968;2024-02-16T07:42:19;13.10;99.90
9975;DHT22;5028;50.974;4.968;2024-02-16T07:44:47;13.10;99.90
9975;DHT22;5028;50.974;4.968;2024-02-16T07:47:16;13.10;99.90
9975;DHT22;5028;50.974;4.968;2024-02-16T07:49:44;13.20;99.90
9975;DHT22;5028;50.974;4.968;2024-02-16T07:52:15;13.10;99.90
9975;DHT22;5028;50.974;4.968;2024-02-16T07:54:43;13.20;99.90
9975;DHT22;5028;50.974;4.968;2024-02-16T07:57:11;13.10;99.90
9975;DHT22;5028;50.974;4.968;2024-02-16T07:59:39;13.20;99.90
9975;DHT22;5028;50.974;4.968;2024-02-16T08:02:07;13.20;99.90
9975;DHT22;5028;50.974;4.968;2024-02-16T08:04:36;13.20;99.90
9975;DHT22;5028;50.974;4.968;2024-02-16T08:07:08;13.30;99.90
9975;DHT22;5028;50.974;4.968;2024-02-16T08:09:37;13.30;99.90
9975;DHT22;5028;50.974;4.968;2024-02-16T08:12:06;13.30;99.90
9975;DHT22;5028;50.974;4.968;2024-02-16T08:14:35;13.30;99.90
9975;DHT22;5028;50.974;4.968;2024-02-16T08:17:03;13.40;99.90
9975;DHT22;5028;50.974;4.968;2024-02-16T08:19:51;13.40;99.90
9975;DHT22;5028;50.974;4.968;2024-02-16T08:22:21;13.40;99.90
9975;DHT22;5028;50.974;4.968;2024-02-16T08:24:51;13.40;99.90
9975;DHT22;5028;50.974;4.968;2024-02-16T08:27:20;13.30;99.90
9975;DHT22;5028;50.974;4.968;2024-02-16T08:29:48;13.20;99.90
9975;DHT22;5028;50.974;4.968;2024-02-16T08:32:17;13.20;99.90
9975;DHT22;5028;50.974;4.968;2024-02-16T08:34:47;13.10;99.90
9975;DHT22;5028;50.974;4.968;2024-02-16T08:37:17;13.00;99.90
9975;DHT22;5028;50.974;4.968;2024-02-16T08:39:45;13.00;99.90
9975;DHT22;5028;50.974;4.968;2024-02-16T08:42:15;13.00;99.90
9975;DHT22;5028;50.974;4.968;2024-02-16T08:44:44;13.00;99.90
9975;DHT22;5028;50.974;4.968;2024-02-16T08:47:12;12.90;99.90
9975;DHT22;5028;50.974;4.968;2024-02-16T08:49:40;12.90;99.90
9975;DHT22;5028;50.974;4.968;2024-02-16T08:52:09;12.90;99.90
9975;DHT22;5028;50.974;4.968;2024-02-16T08:54:38;12.90;99.90
9975;DHT22;5028;50.974;4.968;2024-02-16T08:57:06;12.90;99.90
9975;DHT22;5028;50.974;4.968;2024-02-16T08:59:36;12.90;99.90
9975;DHT22;5028;50.974;4.968;2024-02-16T09:02:04;12.90;99.90
9975;DHT22;5028;50.974;4.968;2024-02-16T09:04:33;13.00;99.90
9975;DHT22;5028;50.974;4.968;2024-02-16T09:07:01;12.90;99.90
9975;DHT22;5028;50.974;4.968;2024-02-16T09:09:30;13.00;99.90
9975;DHT22;5028;50.974;4.968;2024-02-16T09:11:58;13.00;99.90
9975;DHT22;5028;50.974;4.968;2024-02-16T09:14:27;13.00;99.90
9975;DHT22;5028;50.974;4.968;2024-02-16T09:16:56;13.00;99.90
9975;DHT22;5028;50.974;4.968;2024-02-16T09:19:24;13.00;99.90
9975;DHT22;5028;50.974;4.968;2024-02-16T09:21:53;13.10;99.90
9975;DHT22;5028;50.974;4.968;2024-02-16T09:24:24;13.10;99.90
9975;DHT22;5028;50.974;4.968;2024-02-16T09:26:57;13.10;99.90
9975;DHT22;5028;50.974;4.968;2024-02-16T09:29:28;13.10;99.90
9975;DHT22;5028;50.974;4.968;2024-02-16T09:31:58;13.20;99.90
9975;DHT22;5028;50.974;4.968;2024-02-16T09:34:27;13.20;99.90
9975;DHT22;5028;50.974;4.968;2024-02-16T09:36:56;13.20;99.90
9975;DHT22;5028;50.974;4.968;2024-02-16T09:39:24;13.20;99.90
9975;DHT22;5028;50.974;4.968;2024-02-16T09:41:55;13.20;99.90
9975;DHT22;5028;50.974;4.968;2024-02-16T09:44:25;13.20;99.90
9975;DHT22;5028;50.974;4.968;2024-02-16T09:46:54;13.20;99.90
9975;DHT22;5028;50.974;4.968;2024-02-16T09:49:24;13.20;99.90
9975;DHT22;5028;50.974;4.968;2024-02-16T09:52:06;13.20;99.90
9975;DHT22;5028;50.974;4.968;2024-02-16T09:54:37;13.20;99.90
9975;DHT22;5028;50.974;4.968;2024-02-16T09:57:06;13.20;99.90
9975;DHT22;5028;50.974;4.968;2024-02-16T09:59:35;13.20;99.90
9975;DHT22;5028;50.974;4.968;2024-02-16T10:02:04;13.20;99.90
9975;DHT22;5028;50.974;4.968;2024-02-16T10:04:36;13.20;99.90
9975;DHT22;5028;50.974;4.968;2024-02-16T10:07:04;13.20;99.90
9975;DHT22;5028;50.974;4.968;2024-02-16T10:09:39;13.30;99.90
9975;DHT22;5028;50.974;4.968;2024-02-16T10:12:09;13.30;99.90
9975;DHT22;5028;50.974;4.968;2024-02-16T10:14:38;13.30;99.90
9975;DHT22;5028;50.974;4.968;2024-02-16T10:17:08;13.30;99.90
9975;DHT22;5028;50.974;4.968;2024-02-16T10:19:38;13.30;99.90
9975;DHT22;5028;50.974;4.968;2024-02-16T10:22:09;13.30;99.90
9975;DHT22;5028;50.974;4.968;2024-02-16T10:24:39;13.30;99.90
9975;DHT22;5028;50.974;4.968;2024-02-16T10:27:14;13.30;99.90
9975;DHT22;5028;50.974;4.968;2024-02-16T10:29:47;13.30;99.90
9975;DHT22;5028;50.974;4.968;2024-02-16T10:32:17;13.30;99.90
9975;DHT22;5028;50.974;4.968;2024-02-16T10:34:47;13.30;99.90
9975;DHT22;5028;50.974;4.968;2024-02-16T10:37:17;13.30;99.90
9975;DHT22;5028;50.974;4.968;2024-02-16T10:39:46;13.30;99.90
9975;DHT22;5028;50.974;4.968;2024-02-16T10:42:17;13.30;99.90
9975;DHT22;5028;50.974;4.968;2024-02-16T10:44:47;13.40;99.90
9975;DHT22;5028;50.974;4.968;2024-02-16T10:47:16;13.40;99.90
9975;DHT22;5028;50.974;4.968;2024-02-16T10:49:44;13.40;99.90
9975;DHT22;5028;50.974;4.968;2024-02-16T10:52:15;13.40;99.90
9975;DHT22;5028;50.974;4.968;2024-02-16T10:54:45;13.40;99.90
9975;DHT22;5028;50.974;4.968;2024-02-16T10:57:13;13.50;99.90
9975;DHT22;5028;50.974;4.968;2024-02-16T10:59:44;13.50;99.90
9975;DHT22;5028;50.974;4.968;2024-02-16T11:02:15;13.50;99.90
9975;DHT22;5028;50.974;4.968;2024-02-16T11:04:46;13.50;99.90
9975;DHT22;5028;50.974;4.968;2024-02-16T11:07:18;13.50;99.90
9975;DHT22;5028;50.974;4.968;2024-02-16T11:09:47;13.50;99.90
9975;DHT22;5028;50.974;4.968;2024-02-16T11:12:16;13.50;99.90
9975;DHT22;5028;50.974;4.968;2024-02-16T11:14:45;13.50;99.90
9975;DHT22;5028;50.974;4.968;2024-02-16T11:17:15;13.50;99.90
9975;DHT22;5028;50.974;4.968;2024-02-16T11:19:44;13.50;99.90
9975;DHT22;5028;50.974;4.968;2024-02-16T11:22:17;13.50;99.90
9975;DHT22;5028;50.974;4.968;2024-02-16T11:24:48;13.50;99.90
9975;DHT22;5028;50.974;4.968;2024-02-16T11:27:17;13.50;99.90
9975;DHT22;5028;50.974;4.968;2024-02-16T11:29:49;13.50;99.90
9975;DHT22;5028;50.974;4.968;2024-02-16T11:32:18;13.50;99.90
9975;DHT22;5028;50.974;4.968;2024-02-16T11:34:47;13.50;99.90
9975;DHT22;5028;50.974;4.968;2024-02-16T11:37:18;13.50;99.90
9975;DHT22;5028;50.974;4.968;2024-02-16T11:39:46;13.60;99.90
9975;DHT22;5028;50.974;4.968;2024-02-16T11:42:19;13.60;99.90
9975;DHT22;5028;50.974;4.968;2024-02-16T11:44:52;13.60;99.90
9975;DHT22;5028;50.974;4.968;2024-02-16T11:47:23;13.50;99.90
9975;DHT22;5028;50.974;4.968;2024-02-16T11:50:03;13.60;99.90
9975;DHT22;5028;50.974;4.968;2024-02-16T11:52:33;13.60;99.90
9975;DHT22;5028;50.974;4.968;2024-02-16T11:55:02;13.50;99.90
9975;DHT22;5028;50.974;4.968;2024-02-16T11:57:32;13.50;99.90
9975;DHT22;5028;50.974;4.968;2024-02-16T12:00:01;13.50;99.90
9975;DHT22;5028;50.974;4.968;2024-02-16T12:02:35;13.50;99.90
9975;DHT22;5028;50.974;4.968;2024-02-16T12:05:04;13.50;99.90
9975;DHT22;5028;50.974;4.968;2024-02-16T12:07:36;13.40;99.90
9975;DHT22;5028;50.974;4.968;2024-02-16T12:10:08;13.40;99.90
9975;DHT22;5028;50.974;4.968;2024-02-16T12:12:37;13.40;99.90
9975;DHT22;5028;50.974;4.968;2024-02-16T12:15:07;13.30;99.90
9975;DHT22;5028;50.974;4.968;2024-02-16T12:17:35;13.30;99.90
9975;DHT22;5028;50.974;4.968;2024-02-16T12:20:11;13.30;99.90
9975;DHT22;5028;50.974;4.968;2024-02-16T12:22:42;13.30;99.90
9975;DHT22;5028;50.974;4.968;2024-02-16T12:25:10;13.20;99.90
9975;DHT22;5028;50.974;4.968;2024-02-16T12:27:39;13.20;99.90
9975;DHT22;5028;50.974;4.968;2024-02-16T12:30:08;13.20;99.90
9975;DHT22;5028;50.974;4.968;2024-02-16T12:32:37;13.20;99.90
9975;DHT22;5028;50.974;4.968;2024-02-16T12:35:07;13.10;99.90
9975;DHT22;5028;50.974;4.968;2024-02-16T12:37:36;13.10;99.90
9975;DHT22;5028;50.974;4.968;2024-02-16T12:40:07;13.00;99.90
9975;DHT22;5028;50.974;4.968;2024-02-16T12:42:35;13.00;99.90
9975;DHT22;5028;50.974;4.968;2024-02-16T12:45:05;13.00;99.90
9975;DHT22;5028;50.974;4.968;2024-02-16T12:47:34;12.90;99.90
9975;DHT22;5028;50.974;4.968;2024-02-16T12:50:02;12.90;99.90
9975;DHT22;5028;50.974;4.968;2024-02-16T12:52:31;12.90;99.90
9975;DHT22;5028;50.974;4.968;2024-02-16T12:55:08;12.80;99.90
9975;DHT22;5028;50.974;4.968;2024-02-16T12:57:37;12.80;99.90
9975;DHT22;5028;50.974;4.968;2024-02-16T13:00:07;12.80;99.90
9975;DHT22;5028;50.974;4.968;2024-02-16T13:02:35;12.80;99.90
9975;DHT22;5028;50.974;4.968;2024-02-16T13:05:04;12.70;99.90
9975;DHT22;5028;50.974;4.968;2024-02-16T13:07:33;12.70;99.90
9975;DHT22;5028;50.974;4.968;2024-02-16T13:10:01;12.60;99.90
9975;DHT22;5028;50.974;4.968;2024-02-16T13:12:31;12.60;99.90
9975;DHT22;5028;50.974;4.968;2024-02-16T13:14:59;12.60;99.90
9975;DHT22;5028;50.974;4.968;2024-02-16T13:17:45;12.60;99.90
9975;DHT22;5028;50.974;4.968;2024-02-16T13:20:13;12.60;99.90
9975;DHT22;5028;50.974;4.968;2024-02-16T13:22:42;12.60;99.90
9975;DHT22;5028;50.974;4.968;2024-02-16T13:25:10;12.60;99.90
9975;DHT22;5028;50.974;4.968;2024-02-16T13:27:40;12.60;99.90
9975;DHT22;5028;50.974;4.968;2024-02-16T13:30:09;12.60;99.90
9975;DHT22;5028;50.974;4.968;2024-02-16T13:32:38;12.60;99.90
9975;DHT22;5028;50.974;4.968;2024-02-16T13:35:07;12.50;99.90
9975;DHT22;5028;50.974;4.968;2024-02-16T13:37:36;12.50;99.90
9975;DHT22;5028;50.974;4.968;2024-02-16T13:40:05;12.50;99.90
9975;DHT22;5028;50.974;4.968;2024-02-16T13:42:37;12.50;99.90
9975;DHT22;5028;50.974;4.968;2024-02-16T13:45:08;12.50;99.90
9975;DHT22;5028;50.974;4.968;2024-02-16T13:47:38;12.40;99.90
9975;DHT22;5028;50.974;4.968;2024-02-16T13:50:07;12.50;99.90
9975;DHT22;5028;50.974;4.968;2024-02-16T13:52:36;12.50;99.90
9975;DHT22;5028;50.974;4.968;2024-02-16T13:55:04;12.50;99.90
9975;DHT22;5028;50.974;4.968;2024-02-16T13:57:33;12.40;99.90
9975;DHT22;5028;50.974;4.968;2024-02-16T14:00:03;12.40;99.90
9975;DHT22;5028;50.974;4.968;2024-02-16T14:02:33;12.40;99.90
9975;DHT22;5028;50.974;4.968;2024-02-16T14:05:02;12.40;99.90
9975;DHT22;5028;50.974;4.968;2024-02-16T14:07:30;12.50;99.90
9975;DHT22;5028;50.974;4.968;2024-02-16T14:10:09;12.50;99.90
9975;DHT22;5028;50.974;4.968;2024-02-16T14:12:38;12.50;99.90
9975;DHT22;5028;50.974;4.968;2024-02-16T14:15:07;12.50;99.90
9975;DHT22;5028;50.974;4.968;2024-02-16T14:17:44;12.50;99.90
9975;DHT22;5028;50.974;4.968;2024-02-16T14:20:12;12.50;99.90
9975;DHT22;5028;50.974;4.968;2024-02-16T14:22:41;12.50;99.90
9975;DHT22;5028;50.974;4.968;2024-02-16T14:25:10;12.50;99.90
9975;DHT22;5028;50.974;4.968;2024-02-16T14:27:40;12.50;99.90
9975;DHT22;5028;50.974;4.968;2024-02-16T14:30:11;12.60;99.90
9975;DHT22;5028;50.974;4.968;2024-02-16T14:32:39;12.50;99.90
9975;DHT22;5028;50.974;4.968;2024-02-16T14:35:10;12.50;99.90
9975;DHT22;5028;50.974;4.968;2024-02-16T14:37:38;12.50;99.90
9975;DHT22;5028;50.974;4.968;2024-02-16T14:40:07;12.60;99.90
9975;DHT22;5028;50.974;4.968;2024-02-16T14:42:38;12.60;99.90
9975;DHT22;5028;50.974;4.968;2024-02-16T14:45:08;12.60;99.90
9975;DHT22;5028;50.974;4.968;2024-02-16T14:47:36;12.60;99.90
9975;DHT22;5028;50.974;4.968;2024-02-16T14:50:05;12.60;99.90
9975;DHT22;5028;50.974;4.968;2024-02-16T14:52:36;12.60;99.90
9975;DHT22;5028;50.974;4.968;2024-02-16T14:55:06;12.60;99.90
9975;DHT22;5028;50.974;4.968;2024-02-16T14:57:37;12.60;99.90
9975;DHT22;5028;50.974;4.968;2024-02-16T15:00:08;12.50;99.90
9975;DHT22;5028;50.974;4.968;2024-02-16T15:02:38;12.50;99.90
9975;DHT22;5028;50.974;4.968;2024-02-16T15:05:08;12.60;99.90
9975;DHT22;5028;50.974;4.968;2024-02-16T15:07:38;12.60;99.90
9975;DHT22;5028;50.974;4.968;2024-02-16T15:10:07;12.70;99.90
9975;DHT22;5028;50.974;4.968;2024-02-16T15:12:37;12.70;99.90
9975;DHT22;5028;50.974;4.968;2024-02-16T15:15:07;12.70;99.90
9975;DHT22;5028;50.974;4.968;2024-02-16T15:17:36;12.70;99.90
9975;DHT22;5028;50.974;4.968;2024-02-16T15:20:05;12.60;99.90
9975;DHT22;5028;50.974;4.968;2024-02-16T15:22:34;12.60;99.90
9975;DHT22;5028;50.974;4.968;2024-02-16T15:25:16;12.50;99.90
9975;DHT22;5028;50.974;4.968;2024-02-16T15:27:44;12.50;99.90
9975;DHT22;5028;50.974;4.968;2024-02-16T15:30:14;12.50;99.90
9975;DHT22;5028;50.974;4.968;2024-02-16T15:32:42;12.50;99.90
9975;DHT22;5028;50.974;4.968;2024-02-16T15:35:10;12.60;99.90
9975;DHT22;5028;50.974;4.968;2024-02-16T15:37:39;12.60;99.90
9975;DHT22;5028;50.974;4.968;2024-02-16T15:40:09;12.60;99.90
9975;DHT22;5028;50.974;4.968;2024-02-16T15:42:39;12.60;99.90
9975;DHT22;5028;50.974;4.968;2024-02-16T15:45:09;12.60;99.90
9975;DHT22;5028;50.974;4.968;2024-02-16T15:47:39;12.60;99.90
9975;DHT22;5028;50.974;4.968;2024-02-16T15:50:09;12.60;99.90
9975;DHT22;5028;50.974;4.968;2024-02-16T15:52:37;12.60;99.90
9975;DHT22;5028;50.974;4.968;2024-02-16T15:55:06;12.60;99.90
9975;DHT22;5028;50.974;4.968;2024-02-16T15:57:34;12.70;99.90
9975;DHT22;5028;50.974;4.968;2024-02-16T16:00:05;12.70;99.90
9975;DHT22;5028;50.974;4.968;2024-02-16T16:02:34;12.70;99.90
9975;DHT22;5028;50.974;4.968;2024-02-16T16:05:02;12.60;99.90
9975;DHT22;5028;50.974;4.968;2024-02-16T16:07:31;12.60;99.90
9975;DHT22;5028;50.974;4.968;2024-02-16T16:09:59;12.70;99.90
9975;DHT22;5028;50.974;4.968;2024-02-16T16:12:27;12.70;99.90
9975;DHT22;5028;50.974;4.968;2024-02-16T16:14:56;12.70;99.90